Time;durP1;ratioP1;P1;durP2;ratioP2;P2;SDS_P1;SDS_P2;PMS_P1;PMS_P2;Temp;Humidity;BMP_temperature;BMP_pressure;BME280_temperature;BME280_humidity;BME280_pressure;Samples;Min_cycle;Max_cycle;Signal;HPM_P1;HPM_P2
2022/08/17 00:02:11;;;;;;;8.68;5.68;;;21.10;54.20;;;17.47;71.54;94923.13;4921382;29;20433;-48
2022/08/17 00:04:36;;;;;;;6.82;5.05;;;21.10;54.30;;;17.43;71.25;94928.34;4934975;29;20019;-45
2022/08/17 00:07:05;;;;;;;7.35;5.22;;;21.20;54.20;;;17.40;71.76;94931.69;4950152;28;20034;-45
2022/08/17 00:09:40;;;;;;;7.30;4.43;;;21.10;54.40;;;17.36;72.60;94925.38;4934536;29;20085;-44
2022/08/17 00:12:09;;;;;;;5.30;4.72;;;21.10;54.40;;;17.31;73.44;94925.56;4950147;28;20078;-44
2022/08/17 00:14:49;;;;;;;5.03;4.43;;;21.10;54.50;;;17.28;73.28;94921.59;4934630;29;20101;-46
2022/08/17 00:17:15;;;;;;;6.05;5.45;;;21.00;54.50;;;17.25;73.12;94919.56;4935406;29;20504;-44
2022/08/17 00:19:40;;;;;;;7.55;5.20;;;21.00;54.40;;;17.22;72.98;94909.44;4935084;29;20565;-45
2022/08/17 00:22:09;;;;;;;6.88;5.20;;;21.00;54.60;;;17.19;73.18;94898.53;4934205;29;20114;-49
2022/08/17 00:24:35;;;;;;;7.50;4.72;;;21.00;54.70;;;17.17;72.52;94901.53;4902146;29;20073;-45
2022/08/17 00:27:04;;;;;;;5.88;4.97;;;20.90;54.60;;;17.21;72.96;94901.69;4934912;29;20030;-43
2022/08/17 00:29:29;;;;;;;6.40;5.10;;;20.90;54.80;;;17.25;72.60;94908.00;4949664;28;20035;-44
2022/08/17 00:32:00;;;;;;;6.43;5.25;;;20.90;54.80;;;17.26;72.38;94907.66;4935000;28;20087;-48
2022/08/17 00:34:26;;;;;;;6.03;5.43;;;20.90;54.90;;;17.24;72.40;94907.22;4949248;28;20031;-44
2022/08/17 00:36:58;;;;;;;7.43;5.68;;;20.90;54.90;;;17.18;72.80;94913.88;4933762;29;20046;-45
2022/08/17 00:39:27;;;;;;;7.95;5.70;;;20.90;55.00;;;17.10;73.34;94915.47;4934039;29;20106;-44
2022/08/17 00:41:53;;;;;;;8.48;5.60;;;20.90;54.90;;;17.05;73.55;94906.81;4948869;28;20121;-43
2022/08/17 00:44:18;;;;;;;6.32;5.22;;;20.90;54.90;;;17.04;73.78;94906.00;4949012;28;20450;-50
2022/08/17 00:46:46;;;;;;;6.03;5.28;;;20.80;55.00;;;17.04;73.72;94902.53;4933244;29;20039;-44
2022/08/17 00:49:22;;;;;;;9.02;6.15;;;20.80;55.00;;;16.99;74.01;94898.13;4949392;28;20130;-44
2022/08/17 00:52:20;;;;;;;7.50;6.10;;;20.80;55.30;;;16.95;73.90;94891.78;4948606;28;20364;-44
2022/08/17 00:54:52;;;;;;;6.97;5.68;;;20.80;55.40;;;16.90;74.54;94891.97;4929289;29;20083;-50
2022/08/17 00:57:35;;;;;;;6.85;5.10;;;20.70;55.40;;;16.86;74.78;94893.75;4948423;28;20449;-47
2022/08/17 01:00:31;;;;;;;6.50;5.60;;;20.70;55.60;;;16.81;75.03;94893.91;4948848;28;20426;-44
2022/08/17 01:03:20;;;;;;;6.45;5.13;;;20.60;55.60;;;16.82;75.79;94888.19;4929631;29;20118;-44
2022/08/17 01:05:59;;;;;;;7.95;5.20;;;20.60;55.70;;;16.83;75.21;94883.63;4948734;28;20039;-44
2022/08/17 01:08:30;;;;;;;6.78;5.82;;;20.60;55.80;;;16.80;75.53;94876.97;4949053;28;20470;-44
2022/08/17 01:11:00;;;;;;;9.25;6.60;;;20.60;55.80;;;16.70;76.17;94879.97;4929440;29;20032;-44
2022/08/17 01:13:39;;;;;;;9.32;6.25;;;20.60;56.00;;;16.69;75.79;94894.53;4921909;29;20557;-44
2022/08/17 01:16:25;;;;;;;8.68;6.22;;;20.50;56.10;;;16.70;75.69;94898.78;4948110;28;20042;-44
2022/08/17 01:19:05;;;;;;;7.55;5.88;;;20.50;56.20;;;16.69;75.59;94907.19;4929781;29;20029;-44
2022/08/17 01:22:11;;;;;;;7.30;5.38;;;20.60;56.20;;;16.72;75.27;94912.72;4945894;28;20031;-43
2022/08/17 01:25:06;;;;;;;5.78;5.15;;;20.60;56.30;;;16.78;75.89;94899.94;4932325;29;20031;-48
2022/08/17 01:27:36;;;;;;;6.50;5.32;;;20.60;56.30;;;16.91;75.60;94900.84;4933894;29;20421;-46
2022/08/17 01:30:11;;;;;;;7.32;5.20;;;20.60;56.20;;;16.99;76.17;94898.13;4932657;29;20022;-45
2022/08/17 01:32:43;;;;;;;9.73;5.63;;;20.70;56.40;;;17.01;75.46;94895.09;4932563;28;20038;-48
2022/08/17 01:35:09;;;;;;;7.07;5.40;;;20.70;56.40;;;17.04;75.11;94902.53;4932420;29;20046;-45
2022/08/17 01:37:40;;;;;;;6.30;4.72;;;20.70;56.30;;;17.06;74.75;94911.88;4932755;29;20022;-45
2022/08/17 01:40:32;;;;;;;8.93;5.22;;;20.80;56.30;;;17.07;74.45;94931.47;4932773;29;20058;-46
2022/08/17 01:43:35;;;;;;;5.45;4.72;;;20.80;56.40;;;17.08;74.89;94939.25;4932561;28;20065;-45
2022/08/17 01:46:18;;;;;;;5.90;5.00;;;20.90;56.30;;;17.15;73.98;94944.13;4925992;29;20387;-44
2022/08/17 01:48:51;;;;;;;;;;;20.90;56.20;;;17.19;73.17;94955.03;4933076;29;20386;-45
2022/08/17 01:51:19;;;;;;;6.88;4.70;;;20.90;55.60;;;17.25;73.48;94967.22;4948185;28;20352;-50
2022/08/17 01:53:56;;;;;;;7.45;4.88;;;21.00;55.70;;;17.31;73.24;94965.94;4915779;29;20039;-44
2022/08/17 01:56:27;;;;;;;6.43;4.90;;;21.00;55.90;;;17.34;73.12;94978.75;4931767;29;20498;-46
2022/08/17 01:58:59;;;;;;;9.55;5.38;;;21.10;55.80;;;17.34;72.82;94987.59;4935830;28;20386;-45
2022/08/17 02:01:36;;;;;;;9.07;4.95;;;21.10;55.80;;;17.33;72.78;94983.34;4952669;28;20480;-46
2022/08/17 02:04:06;;;;;;;6.13;4.70;;;21.00;55.80;;;17.34;72.46;94986.81;4933844;28;20030;-44
2022/08/17 02:06:45;;;;;;;9.10;5.15;;;21.00;55.60;;;17.31;72.49;94995.53;4946660;28;20074;-45
2022/08/17 02:09:11;;;;;;;10.73;6.03;;;21.10;55.80;;;17.28;71.88;94993.50;4927758;28;20027;-46
2022/08/17 02:11:38;;;;;;;6.63;5.40;;;21.00;55.60;;;17.27;71.97;95002.69;4935334;28;20031;-44
2022/08/17 02:14:09;;;;;;;6.00;4.70;;;21.10;55.50;;;17.26;73.68;94996.47;4935419;28;20392;-49
2022/08/17 02:16:41;;;;;;;7.68;4.35;;;21.10;55.70;;;17.24;73.69;95004.09;4950751;28;20030;-44
2022/08/17 02:19:14;;;;;;;6.18;5.32;;;21.10;55.70;;;17.25;73.48;95004.91;4952714;28;20050;-47
2022/08/17 02:21:45;;;;;;;6.70;5.18;;;21.10;55.80;;;17.23;73.15;95007.09;4952525;28;20052;-47
2022/08/17 02:24:24;;;;;;;7.82;5.07;;;21.00;55.80;;;17.25;71.63;95005.69;4934787;28;20026;-43
2022/08/17 02:26:53;;;;;;;8.07;4.60;;;21.00;55.70;;;17.31;71.11;95012.47;4950922;28;20026;-45
2022/08/17 02:29:19;;;;;;;5.15;4.63;;;21.10;55.60;;;17.35;72.08;95013.41;4952415;28;20429;-44
2022/08/17 02:31:48;;;;;;;5.78;4.53;;;21.10;55.50;;;17.36;72.84;95014.22;4951032;28;20030;-47
2022/08/17 02:34:14;;;;;;;5.05;4.55;;;21.10;55.70;;;17.30;72.43;95007.44;4951700;28;20050;-46
2022/08/17 02:36:43;;;;;;;8.50;5.28;;;21.10;55.60;;;17.33;72.37;95009.47;4950863;28;20078;-43
2022/08/17 02:39:12;;;;;;;5.85;4.47;;;21.10;55.60;;;17.34;72.09;95003.75;4951906;28;20084;-49
2022/08/17 02:41:43;;;;;;;6.93;4.70;;;21.10;55.60;;;17.31;72.36;95019.75;4950881;28;20038;-45
2022/08/17 02:44:09;;;;;;;8.40;5.60;;;21.10;55.60;;;17.29;72.41;95028.13;4931498;29;20035;-49
2022/08/17 02:46:35;;;;;;;5.95;5.13;;;21.20;55.60;;;17.31;72.78;95038.59;4944313;29;20462;-44
2022/08/17 02:49:03;;;;;;;6.45;5.28;;;21.10;55.60;;;17.31;72.95;95042.06;4934997;29;20018;-44
2022/08/17 02:51:35;;;;;;;8.73;5.05;;;21.10;55.60;;;17.33;72.75;95042.56;4934880;29;20062;-44
2022/08/17 02:54:04;;;;;;;5.88;5.07;;;21.10;55.80;;;17.30;72.67;95053.97;4934847;29;20038;-46
2022/08/17 02:56:30;;;;;;;6.82;5.05;;;21.10;55.60;;;17.29;72.85;95052.38;4934099;29;20504;-44
2022/08/17 02:59:05;;;;;;;7.45;5.40;;;21.10;55.60;;;17.33;72.60;95049.84;4934620;29;20026;-46
2022/08/17 03:01:33;;;;;;;9.85;5.22;;;21.20;55.80;;;17.34;72.20;95054.91;4918970;29;20023;-45
2022/08/17 03:04:06;;;;;;;5.28;4.78;;;21.20;55.70;;;17.34;74.04;95037.97;4951428;28;20082;-44
2022/08/17 03:06:38;;;;;;;8.45;4.82;;;21.20;55.90;;;17.33;73.85;95034.50;4954237;28;20026;-44
2022/08/17 03:09:04;;;;;;;9.20;5.10;;;21.20;55.80;;;17.27;74.03;95035.75;4955044;28;20029;-47
2022/08/17 03:11:32;;;;;;;10.98;5.80;;;21.10;55.70;;;17.26;73.83;95036.06;4955751;28;20026;-45
2022/08/17 03:14:01;;;;;;;6.22;4.97;;;21.10;55.80;;;17.24;73.43;95038.31;4938642;28;20069;-43
2022/08/17 03:16:29;;;;;;;7.38;5.63;;;21.10;55.90;;;17.19;73.21;95050.00;4954051;28;20023;-47
2022/08/17 03:18:58;;;;;;;5.88;4.90;;;21.10;55.90;;;17.15;73.08;95049.09;4955758;28;20090;-46
2022/08/17 03:21:30;;;;;;;8.48;5.18;;;21.00;55.90;;;17.09;73.49;95045.75;4938228;28;20030;-43
2022/08/17 03:23:56;;;;;;;8.20;5.10;;;21.00;56.20;;;17.02;74.22;95047.34;4938494;28;20081;-47
2022/08/17 03:26:26;;;;;;;5.97;5.32;;;20.90;56.00;;;16.99;74.88;95059.53;4955089;28;20035;-45
2022/08/17 03:28:52;;;;;;;6.57;5.47;;;20.90;56.10;;;16.95;74.79;95058.56;4939041;28;20077;-45
2022/08/17 03:31:20;;;;;;;7.20;5.88;;;20.90;56.20;;;16.89;75.91;95062.53;4955302;28;20069;-45
2022/08/17 03:33:52;;;;;;;8.45;5.80;;;20.80;56.30;;;16.79;76.33;95058.25;4955499;28;20362;-44
2022/08/17 03:36:18;;;;;;;5.95;5.25;;;20.80;56.60;;;16.71;76.64;95060.94;4953194;28;20045;-50
2022/08/17 03:38:46;;;;;;;8.98;5.47;;;20.70;56.60;;;16.70;76.91;95060.13;4955465;28;20019;-46
2022/08/17 03:41:15;;;;;;;6.30;5.32;;;20.60;57.30;;;16.58;77.11;95058.09;4953617;28;20047;-43
2022/08/17 03:43:43;;;;;;;7.15;5.75;;;20.60;56.90;;;16.51;77.42;95054.25;4954710;28;20360;-46
2022/08/17 03:57:30;;;;;;;11.38;6.43;;;20.20;57.60;;;16.23;78.26;95072.53;4953815;28;20604;-47
2022/08/17 04:00:03;;;;;;;11.45;7.35;;;20.10;57.50;;;16.14;78.34;95075.25;4954497;28;20034;-44
2022/08/17 04:02:33;;;;;;;;;;;20.10;57.80;;;16.07;78.90;95085.63;4954033;28;20034;-44
2022/08/17 04:05:03;;;;;;;11.70;7.47;;;20.00;57.30;;;16.00;79.07;95082.59;4952659;28;20278;-45
2022/08/17 04:07:35;;;;;;;9.60;7.03;;;19.90;57.70;;;15.93;79.70;95077.69;4937594;28;20041;-47
2022/08/17 04:10:01;;;;;;;7.43;6.35;;;19.90;58.00;;;15.85;80.10;95086.47;4954517;28;20445;-45
2022/08/17 04:12:54;;;;;;;6.80;6.10;;;19.80;58.00;;;15.89;80.05;95076.72;4954833;28;20030;-43
2022/08/17 04:15:32;;;;;;;12.35;6.80;;;19.80;58.40;;;15.96;79.62;95085.91;4952356;28;20126;-45
2022/08/17 04:18:01;;;;;;;8.70;6.95;;;19.80;58.50;;;15.93;79.72;95094.59;4954542;28;20029;-44
2022/08/17 04:20:35;;;;;;;12.77;7.57;;;19.80;58.50;;;15.85;80.31;95103.38;4954453;28;20041;-45
2022/08/17 04:23:17;;;;;;;7.38;6.57;;;19.70;58.70;;;15.85;80.22;95091.84;4953131;28;20137;-46
2022/08/17 04:25:50;;;;;;;12.43;7.63;;;19.70;58.90;;;15.84;80.52;95098.34;4934660;28;20395;-53
2022/08/17 04:28:19;;;;;;;;;;;19.70;58.80;;;15.79;81.10;95095.78;4953768;28;20023;-46
2022/08/17 04:30:47;;;;;;;13.10;7.90;;;19.70;58.30;;;15.83;80.75;95086.81;4953116;28;19905;-43
2022/08/17 04:33:26;;;;;;;11.63;8.23;;;19.70;58.60;;;15.87;80.58;95084.28;4952302;28;20031;-47
2022/08/17 04:36:00;;;;;;;11.20;7.97;;;19.80;59.00;;;15.84;81.05;95091.06;4953954;28;20038;-47
2022/08/17 04:38:47;;;;;;;9.50;7.40;;;19.80;59.00;;;15.88;80.88;95102.78;4954147;28;20022;-45
2022/08/17 04:44:02;;;;;;;8.13;6.75;;;19.90;59.00;;;15.97;80.75;95102.81;4952993;28;20041;-43
2022/08/17 04:46:38;;;;;;;10.45;7.97;;;19.90;59.00;;;16.07;80.35;95091.78;4953608;28;20030;-49
2022/08/17 04:49:12;;;;;;;7.70;6.13;;;20.00;59.20;;;16.18;79.83;95103.84;4952664;28;20027;-47
2022/08/17 04:51:46;;;;;;;8.30;5.95;;;20.10;59.10;;;16.42;78.43;95116.06;4934013;29;20117;-45
2022/08/17 04:54:20;;;;;;;7.97;6.18;;;20.20;59.20;;;16.61;77.51;95121.19;4932776;28;20026;-47
2022/08/17 04:56:47;;;;;;;10.43;6.45;;;20.40;59.00;;;16.78;77.21;95115.84;4951380;23;20046;-47
2022/08/17 04:59:22;;;;;;;7.30;5.82;;;20.50;58.90;;;16.98;76.09;95122.50;4969032;28;20606;-50
2022/08/17 05:01:51;;;;;;;13.45;6.22;;;20.70;58.80;;;17.16;75.69;95127.91;4955281;28;20034;-47
2022/08/17 05:04:24;;;;;;;6.97;5.63;;;20.80;58.50;;;17.41;74.62;95131.69;4955685;28;20113;-52
2022/08/17 05:06:51;;;;;;;6.78;5.13;;;21.00;58.40;;;17.66;74.45;95128.16;4971902;28;20022;-50
2022/08/17 05:09:17;;;;;;;8.48;5.22;;;21.20;58.10;;;17.80;74.34;95134.19;4971429;28;20041;-48
2022/08/17 05:11:45;;;;;;;8.07;5.57;;;21.40;57.90;;;17.84;74.13;95144.31;4972920;28;20125;-49
2022/08/17 05:14:16;;;;;;;6.72;6.03;;;21.50;57.70;;;17.85;73.87;95138.59;4952807;28;20049;-48
2022/08/17 05:16:44;;;;;;;6.82;6.00;;;21.60;57.60;;;17.89;74.00;95128.75;4972739;28;20054;-52
2022/08/17 05:19:10;;;;;;;8.77;6.07;;;21.70;57.40;;;17.92;74.15;95125.41;4972544;28;20018;-51
2022/08/17 05:21:39;;;;;;;12.93;6.57;;;21.80;57.40;;;17.93;73.90;95127.03;4971702;28;20057;-54
2022/08/17 05:24:08;;;;;;;8.35;5.68;;;21.80;57.20;;;17.96;74.27;95131.78;4955150;28;20432;-51
2022/08/17 05:26:34;;;;;;;10.05;6.15;;;21.90;57.20;;;18.01;73.69;95134.28;4971968;28;20412;-49
2022/08/17 05:29:00;;;;;;;7.78;6.18;;;22.00;57.00;;;18.09;73.72;95135.38;4954918;28;20088;-50
2022/08/17 05:31:28;;;;;;;9.63;6.40;;;22.10;56.90;;;18.16;73.59;95134.88;4931925;29;20484;-50
2022/08/17 05:33:54;;;;;;;9.15;6.28;;;22.20;56.80;;;18.23;73.69;95138.63;4947912;28;20054;-51
2022/08/17 05:36:20;;;;;;;8.27;6.07;;;22.30;56.60;;;18.32;73.19;95130.50;4901475;28;21775;-47
2022/08/17 05:38:46;;;;;;;6.72;5.68;;;22.40;56.60;;;18.39;72.93;95128.09;4951267;28;20030;-52
2022/08/17 05:41:12;;;;;;;7.15;6.22;;;22.40;56.40;;;18.47;72.89;95118.38;4949346;28;20106;-53
2022/08/17 05:43:41;;;;;;;8.57;6.32;;;22.50;56.40;;;18.53;72.30;95116.31;4949627;28;20030;-48
2022/08/17 05:46:36;;;;;;;10.45;6.22;;;22.60;56.30;;;18.56;72.86;95111.03;4943983;28;20480;-51
2022/08/17 05:49:06;;;;;;;6.35;5.72;;;22.60;56.30;;;18.62;72.71;95114.34;4954144;28;20100;-52
2022/08/17 05:52:15;;;;;;;9.93;6.00;;;22.70;56.20;;;18.65;73.66;95119.88;4954824;28;20117;-51
2022/08/17 05:55:41;;;;;;;7.88;6.60;;;22.70;56.30;;;18.71;73.42;95133.97;4971888;28;20420;-50
2022/08/17 05:58:53;;;;;;;9.75;6.57;;;22.80;56.10;;;18.78;73.66;95130.78;4891369;29;20048;-53
2022/08/17 06:02:00;;;;;;;7.60;6.50;;;22.90;56.20;;;18.84;73.27;95126.78;4889320;29;20032;-50
2022/08/17 06:05:00;;;;;;;7.72;6.10;;;23.00;56.00;;;18.93;72.34;95120.19;4863167;29;20606;-48
2022/08/17 06:08:13;;;;;;;8.68;6.10;;;23.10;55.80;;;19.05;70.90;95127.53;4876999;29;20036;-50
2022/08/17 06:10:53;;;;;;;7.32;6.03;;;23.20;55.50;;;19.18;70.68;95125.72;4893189;29;20395;-51
2022/08/17 06:13:40;;;;;;;8.68;6.35;;;23.40;55.20;;;19.64;70.43;95140.88;4892880;29;20028;-48
2022/08/17 06:16:19;;;;;;;8.93;6.28;;;23.80;54.90;;;20.13;67.54;95140.22;4892686;29;20067;-50
2022/08/17 06:19:24;;;;;;;7.45;6.43;;;24.30;54.30;;;20.89;65.14;95146.91;4892783;29;20038;-51
2022/08/17 06:21:55;;;;;;;5.75;5.03;;;24.90;53.70;;;21.30;62.50;95142.31;4874837;29;20046;-52
2022/08/17 06:24:36;;;;;;;8.55;5.55;;;25.40;53.00;;;21.49;61.35;95150.59;4887678;29;20036;-49
2022/08/17 06:28:04;;;;;;;9.23;5.45;;;25.60;52.30;;;21.70;60.55;95133.38;4874304;29;20040;-47
2022/08/17 06:30:57;;;;;;;6.47;5.18;;;25.90;51.70;;;21.84;59.57;95124.81;4945511;28;20042;-52
2022/08/17 06:33:36;;;;;;;;;;;26.10;51.00;;;22.01;58.74;95110.16;4931834;28;20038;-50
2022/08/17 06:37:15;;;;;;;7.45;5.75;;;26.30;51.00;;;22.53;59.22;95104.50;4951384;28;19910;-55
2022/08/17 06:40:32;;;;;;;7.63;4.78;;;26.80;50.40;;;22.81;57.39;95103.56;4944347;28;20034;-49
2022/08/17 06:44:24;;;;;;;6.40;5.13;;;27.10;49.60;;;23.03;54.41;95108.34;4948704;28;20065;-49
2022/08/17 06:47:22;;;;;;;7.85;5.20;;;27.30;48.90;;;23.09;55.24;95127.84;4933807;29;20026;-54
2022/08/17 06:50:14;;;;;;;6.00;4.90;;;27.40;48.20;;;23.14;56.35;95105.84;4940027;28;20059;-56
2022/08/17 06:53:21;;;;;;;5.93;5.32;;;27.50;48.20;;;23.64;54.65;95115.00;4951597;29;20026;-50
2022/08/17 06:56:12;;;;;;;9.10;5.55;;;27.90;48.40;;;24.09;52.81;95110.78;4944234;29;20053;-50
2022/08/17 06:58:43;;;;;;;8.02;5.43;;;28.40;47.00;;;24.57;51.23;95105.78;4946743;28;20047;-46
2022/08/17 07:01:32;;;;;;;16.25;5.95;;;28.80;46.30;;;24.86;49.30;95112.44;4947272;29;20047;-44
2022/08/17 07:04:25;;;;;;;7.30;5.32;;;29.40;45.40;;;25.30;48.35;95102.91;4916372;29;20049;-51
2022/08/17 07:08:00;;;;;;;8.52;5.20;;;30.10;44.40;;;25.87;46.59;95119.19;4929044;29;20421;-51
2022/08/17 07:09:52;;;;;;;8.02;5.07;;;30.60;43.30;;;26.29;44.95;95119.59;4938107;28;20553;-53
2022/08/17 07:12:38;;;;;;;8.60;4.85;;;31.10;42.40;;;26.67;44.41;95123.03;4928984;29;20027;-51
2022/08/17 07:15:15;;;;;;;5.47;4.97;;;31.50;41.60;;;26.85;42.49;95122.38;4913513;29;20031;-52
2022/08/17 07:17:45;;;;;;;8.02;5.40;;;31.90;40.40;;;27.14;42.72;95123.34;4926741;29;20023;-48
2022/08/17 07:20:30;;;;;;;9.43;6.00;;;32.20;39.80;;;27.41;41.27;95112.94;4931537;29;20023;-50
2022/08/17 07:23:48;;;;;;;13.50;5.63;;;32.50;38.80;;;27.85;41.13;95115.47;4951315;29;20030;-54
2022/08/17 07:26:23;;;;;;;8.02;5.30;;;32.90;38.30;;;27.96;40.06;95109.25;4950978;29;20026;-50
2022/08/17 07:28:55;;;;;;;5.50;4.97;;;33.40;37.60;;;28.24;39.25;95112.03;4934188;29;20022;-55
2022/08/17 07:31:25;;;;;;;;;;;33.80;36.40;;;28.47;38.50;95094.47;4950995;29;20069;-53
2022/08/17 07:34:19;;;;;;;6.55;5.63;;;34.20;37.20;;;28.59;38.42;95094.84;4966796;28;19906;-52
2022/08/17 07:37:09;;;;;;;5.95;5.18;;;34.70;35.80;;;28.77;38.42;95099.53;4951094;28;20047;-51
2022/08/17 07:39:35;;;;;;;4.72;4.22;;;34.90;34.90;;;28.94;38.97;95109.69;4952278;28;20026;-53
2022/08/17 07:42:10;;;;;;;5.57;4.88;;;35.00;34.70;;;29.10;37.50;95105.75;4951514;28;20385;-52
2022/08/17 07:44:54;;;;;;;7.05;5.47;;;35.00;34.10;;;29.10;37.90;95103.78;4934568;29;20035;-53
2022/08/17 07:50:28;;;;;;;6.60;4.82;;;34.90;33.80;;;29.34;37.77;95091.19;4951876;28;20042;-49
2022/08/17 07:52:54;;;;;;;7.10;4.85;;;34.90;33.40;;;29.50;37.97;95083.28;4969918;28;20125;-52
2022/08/17 07:55:39;;;;;;;6.82;5.45;;;35.00;33.20;;;29.35;37.55;95083.75;4969863;28;20114;-52
2022/08/17 07:58:14;;;;;;;9.05;5.50;;;35.10;32.70;;;29.44;37.70;95082.13;4964819;28;20034;-50
2022/08/17 08:01:16;;;;;;;7.43;5.30;;;35.00;32.50;;;29.36;37.09;95082.56;4955948;28;20022;-53
2022/08/17 08:03:45;;;;;;;7.10;5.78;;;35.00;32.40;;;29.11;37.89;95086.16;4937780;28;20314;-49
2022/08/17 08:06:25;;;;;;;6.32;4.88;;;34.90;32.20;;;29.18;38.20;95097.13;4937675;28;20473;-53
2022/08/17 08:08:56;;;;;;;5.68;5.05;;;34.80;32.30;;;28.94;38.30;95092.47;4953214;28;20023;-51
2022/08/17 08:11:35;;;;;;;5.60;5.10;;;34.70;32.20;;;28.53;38.47;95095.63;4937584;28;20145;-52
2022/08/17 08:14:38;;;;;;;6.25;4.88;;;34.60;32.00;;;28.42;38.72;95089.38;4937628;28;20019;-51
2022/08/17 08:17:07;;;;;;;4.90;4.40;;;34.50;32.10;;;28.06;38.23;95098.31;4897423;29;20079;-49
2022/08/17 08:19:34;;;;;;;5.63;5.10;;;34.40;31.80;;;28.06;39.37;95089.31;4940468;28;20298;-46
2022/08/17 08:22:29;;;;;;;8.52;5.20;;;34.20;31.80;;;28.24;39.07;95095.59;4973889;28;20572;-48
2022/08/17 08:25:14;;;;;;;6.20;5.40;;;34.20;31.90;;;28.73;38.14;95105.00;4957540;28;20022;-50
2022/08/17 08:28:42;;;;;;;6.28;5.22;;;34.40;31.80;;;28.59;38.17;95114.03;4973201;28;20037;-51
2022/08/17 08:31:49;;;;;;;7.80;5.50;;;34.50;31.90;;;28.96;38.02;95115.56;4972913;28;20065;-50
2022/08/17 08:34:29;;;;;;;5.85;5.35;;;34.80;31.70;;;29.33;38.18;95119.00;4973982;28;20032;-48
2022/08/17 08:37:55;;;;;;;9.45;5.93;;;35.10;31.40;;;29.74;36.89;95130.22;4955918;28;20088;-50
2022/08/17 08:40:44;;;;;;;8.88;5.68;;;35.40;31.30;;;29.61;36.51;95124.41;4973777;28;20130;-49
2022/08/17 08:44:36;;;;;;;6.22;5.28;;;35.40;30.80;;;29.67;36.74;95117.34;4956357;28;20026;-50
2022/08/17 08:47:49;;;;;;;5.97;5.47;;;35.40;30.80;;;29.70;36.45;95137.72;4823581;29;20060;-48
2022/08/17 08:50:39;;;;;;;5.57;5.07;;;35.50;30.60;;;29.36;36.91;95143.69;4863231;28;20075;-48
2022/08/17 08:54:07;;;;;;;5.38;4.88;;;35.40;30.30;;;29.57;36.29;95142.81;4940365;28;20030;-48
2022/08/17 08:56:51;;;;;;;6.88;4.65;;;35.30;30.40;;;29.28;35.95;95140.19;4972589;28;20424;-48
2022/08/17 08:59:48;;;;;;;6.78;4.63;;;35.30;30.30;;;29.03;36.75;95142.19;4967148;28;20035;-50
2022/08/17 09:03:03;;;;;;;7.60;5.10;;;35.30;30.20;;;29.14;36.89;95136.69;4949831;28;20031;-52
2022/08/17 09:05:56;;;;;;;5.28;4.78;;;35.30;30.10;;;28.92;36.35;95133.94;4938194;28;20050;-49
2022/08/17 09:09:03;;;;;;;5.35;4.22;;;35.30;29.90;;;29.41;35.48;95139.75;4936310;28;20129;-53
2022/08/17 09:12:00;;;;;;;4.32;3.97;;;35.40;29.90;;;29.79;34.37;95138.06;4953857;28;20022;-50
2022/08/17 09:15:05;;;;;;;6.38;4.90;;;35.70;29.60;;;30.19;33.77;95144.13;4927920;28;20027;-47
2022/08/17 09:18:20;;;;;;;5.55;4.50;;;36.00;29.20;;;30.59;33.17;95156.44;4934065;28;20050;-47
2022/08/17 09:21:29;;;;;;;5.45;4.60;;;36.30;29.10;;;30.93;32.03;95149.50;4926045;28;20117;-50
2022/08/17 09:24:38;;;;;;;5.22;4.57;;;36.70;28.50;;;30.88;32.79;95139.72;4952447;28;20030;-47
2022/08/17 09:27:20;;;;;;;4.45;3.90;;;37.10;28.30;;;31.05;31.97;95152.53;4922534;28;20113;-52
2022/08/17 09:29:59;;;;;;;6.60;4.78;;;37.40;27.90;;;31.08;32.24;95140.72;4936740;28;20041;-50
2022/08/17 09:32:48;;;;;;;5.20;4.80;;;37.60;28.20;;;31.59;32.09;95135.50;4936041;28;20485;-47
2022/08/17 09:35:52;;;;;;;4.53;4.13;;;37.90;27.60;;;32.15;30.68;95135.16;4952377;28;20033;-48
2022/08/17 09:38:32;;;;;;;5.18;4.78;;;38.00;27.10;;;32.63;30.07;95142.38;4951220;28;20117;-48
2022/08/17 09:41:21;;;;;;;7.88;4.78;;;38.40;27.00;;;32.60;30.36;95146.75;4953101;28;20493;-48
2022/08/17 09:44:13;;;;;;;4.75;4.30;;;38.70;27.00;;;32.94;29.53;95130.03;4949150;28;20023;-47
2022/08/17 09:47:18;;;;;;;4.88;4.47;;;39.00;26.60;;;33.03;28.89;95134.22;4939730;28;20022;-49
2022/08/17 09:50:12;;;;;;;6.03;4.53;;;39.20;26.20;;;33.09;29.03;95138.84;4924202;28;20026;-52
2022/08/17 09:52:40;;;;;;;4.63;4.22;;;39.40;26.00;;;32.68;29.07;95139.91;4955140;28;20049;-50
2022/08/17 09:55:09;;;;;;;4.95;4.55;;;39.50;25.60;;;32.79;28.83;95141.72;4938875;28;20022;-49
2022/08/17 09:58:13;;;;;;;4.80;4.30;;;39.50;25.20;;;32.51;29.07;95149.25;4971383;28;20144;-48
2022/08/17 10:01:15;;;;;;;4.78;4.28;;;39.50;25.00;;;32.25;29.22;95151.56;4955413;28;20027;-52
2022/08/17 10:03:59;;;;;;;5.20;4.35;;;39.40;25.00;;;32.67;28.36;95145.84;4951144;28;20054;-52
2022/08/17 10:06:42;;;;;;;5.15;4.53;;;39.30;24.80;;;32.76;28.45;95143.34;4935094;28;20023;-48
2022/08/17 10:09:43;;;;;;;5.90;4.50;;;39.50;24.80;;;33.06;28.18;95156.25;4935197;28;20033;-48
2022/08/17 10:13:14;;;;;;;5.53;4.10;;;39.50;24.80;;;33.42;28.12;95169.41;4935438;28;21322;-48
2022/08/17 10:16:44;;;;;;;4.97;4.45;;;39.80;24.70;;;33.84;27.93;95165.03;4952087;28;20445;-47
2022/08/17 10:19:48;;;;;;;5.30;4.35;;;40.00;24.80;;;33.85;26.88;95149.25;4935128;28;20410;-49
2022/08/17 10:28:29;;;;;;;4.55;4.22;;;40.10;24.30;;;32.83;27.50;95134.16;4952414;28;20040;-49
2022/08/17 10:31:08;;;;;;;4.75;4.07;;;40.00;23.90;;;33.11;27.30;95141.19;4954600;28;20101;-51
2022/08/17 10:33:54;;;;;;;6.63;4.53;;;40.00;24.00;;;33.19;27.18;95139.88;4951023;28;20026;-49
2022/08/17 10:36:51;;;;;;;4.88;4.40;;;40.00;23.90;;;32.77;27.19;95152.38;4957663;28;20497;-50
2022/08/17 10:39:50;;;;;;;7.55;4.50;;;40.00;24.40;;;32.89;27.38;95160.06;4956445;28;20022;-48
2022/08/17 10:42:48;;;;;;;5.57;5.07;;;40.00;23.60;;;33.32;26.83;95165.63;4962361;28;20029;-47
2022/08/17 10:45:35;;;;;;;4.30;3.90;;;40.10;23.60;;;33.03;25.88;95164.56;4929656;28;20062;-48
2022/08/17 10:48:31;;;;;;;4.80;4.40;;;40.20;23.20;;;32.59;27.49;95172.72;4936525;28;20022;-47
2022/08/17 10:51:08;;;;;;;4.72;4.32;;;40.20;23.20;;;32.82;27.13;95168.47;4934523;29;20030;-49
2022/08/17 10:53:33;;;;;;;4.53;4.10;;;40.10;23.10;;;33.06;26.39;95170.06;4951509;29;20086;-48
2022/08/17 10:56:16;;;;;;;4.68;4.13;;;40.20;23.10;;;33.14;26.77;95167.94;4951669;29;20405;-54
2022/08/17 10:58:52;;;;;;;5.00;4.38;;;40.30;23.00;;;32.00;28.88;95145.63;4967938;28;20145;-50
2022/08/17 11:01:57;;;;;;;4.65;4.30;;;40.20;22.90;;;32.44;28.46;95149.34;4971164;28;20030;-53
2022/08/17 11:04:40;;;;;;;4.93;4.53;;;40.10;23.10;;;32.86;28.40;95142.38;4971060;28;20354;-50
2022/08/17 11:07:57;;;;;;;5.60;5.10;;;40.20;23.20;;;32.91;28.02;95144.66;4970802;28;20049;-49
2022/08/17 11:11:09;;;;;;;4.75;4.35;;;40.40;23.30;;;33.52;27.20;95131.78;4918290;28;20042;-46
2022/08/17 11:14:12;;;;;;;5.22;4.72;;;40.60;23.20;;;33.82;26.34;95136.31;4950854;29;20034;-53
2022/08/17 11:16:49;;;;;;;4.60;4.20;;;40.80;22.90;;;33.78;26.28;95132.81;4938722;28;20034;-50
2022/08/17 11:19:43;;;;;;;5.20;4.70;;;41.10;22.90;;;32.88;26.67;95125.41;4952651;28;20022;-51
2022/08/17 11:22:37;;;;;;;4.78;4.38;;;41.10;22.60;;;32.63;28.02;95123.06;4934451;29;20449;-49
2022/08/17 11:25:47;;;;;;;5.25;4.72;;;41.00;22.60;;;33.14;27.50;95115.50;4952522;28;20019;-53
2022/08/17 11:28:14;;;;;;;4.80;4.40;;;41.00;22.70;;;33.23;26.98;95110.22;4938585;28;20030;-49
2022/08/17 11:30:55;;;;;;;5.10;4.43;;;41.00;22.50;;;33.77;26.28;95107.19;4952802;28;20109;-48
2022/08/17 11:33:33;;;;;;;5.22;4.75;;;41.00;22.50;;;33.71;26.51;95111.66;4949180;28;20031;-52
2022/08/17 11:36:39;;;;;;;6.85;5.10;;;41.10;22.50;;;33.78;26.45;95116.25;4950736;28;20042;-53
2022/08/17 11:40:12;;;;;;;4.82;4.43;;;41.10;22.50;;;33.56;26.53;95104.88;4944740;28;20393;-49
2022/08/17 11:43:16;;;;;;;6.63;4.63;;;41.20;22.50;;;33.75;26.03;95098.56;4937258;28;20492;-51
2022/08/17 11:52:45;;;;;;;5.30;4.80;;;41.70;22.00;;;34.06;26.11;95095.53;4954626;28;20085;-47
2022/08/17 11:55:34;;;;;;;4.75;4.25;;;41.90;22.00;;;34.12;26.30;95090.28;4938101;28;20042;-49